sensor_id;sensor_type;location;lat;lon;timestamp;pressure;altitude;pressure_sealevel;temperature;humidity
78121;BME280;67585;44.802;10.332;2024-03-06T00:00:07;100654.31;;;10.32;nan
78121;BME280;67585;44.802;10.332;2024-03-06T00:02:37;100630.09;;;10.05;nan
78121;BME280;67585;44.802;10.332;2024-03-06T00:05:02;100651.88;;;10.31;nan
78121;BME280;67585;44.802;10.332;2024-03-06T00:07:29;100646.03;;;10.17;nan
78121;BME280;67585;44.802;10.332;2024-03-06T00:09:54;100635.94;;;10.29;nan
78121;BME280;67585;44.802;10.332;2024-03-06T00:12:20;100643.91;;;10.19;nan
78121;BME280;67585;44.802;10.332;2024-03-06T00:14:45;100647.38;;;10.14;nan
78121;BME280;67585;44.802;10.332;2024-03-06T00:17:11;100636.19;;;10.27;nan
78121;BME280;67585;44.802;10.332;2024-03-06T00:19:36;100649.78;;;10.38;nan
78121;BME280;67585;44.802;10.332;2024-03-06T00:22:01;100650.50;;;10.28;nan
78121;BME280;67585;44.802;10.332;2024-03-06T00:24:28;100656.00;;;10.16;nan
78121;BME280;67585;44.802;10.332;2024-03-06T00:26:53;100665.50;;;10.24;nan
78121;BME280;67585;44.802;10.332;2024-03-06T00:29:19;100647.88;;;10.38;nan
78121;BME280;67585;44.802;10.332;2024-03-06T00:31:45;100648.94;;;10.32;nan
78121;BME280;67585;44.802;10.332;2024-03-06T00:34:11;100639.09;;;10.53;nan
78121;BME280;67585;44.802;10.332;2024-03-06T00:36:39;100646.59;;;10.46;nan
78121;BME280;67585;44.802;10.332;2024-03-06T00:39:05;100657.44;;;10.51;nan
78121;BME280;67585;44.802;10.332;2024-03-06T00:41:31;100627.31;;;10.27;nan
78121;BME280;67585;44.802;10.332;2024-03-06T00:43:56;100638.56;;;10.24;nan
78121;BME280;67585;44.802;10.332;2024-03-06T00:46:22;100655.75;;;10.45;nan
78121;BME280;67585;44.802;10.332;2024-03-06T00:48:48;100663.31;;;10.48;nan
78121;BME280;67585;44.802;10.332;2024-03-06T00:51:13;100664.81;;;10.34;nan
78121;BME280;67585;44.802;10.332;2024-03-06T00:53:41;100647.28;;;10.31;nan
78121;BME280;67585;44.802;10.332;2024-03-06T00:56:09;100657.28;;;10.36;nan
78121;BME280;67585;44.802;10.332;2024-03-06T00:58:38;100657.22;;;10.63;nan
78121;BME280;67585;44.802;10.332;2024-03-06T01:01:04;100651.91;;;10.36;nan
78121;BME280;67585;44.802;10.332;2024-03-06T01:03:29;100652.44;;;10.33;nan
78121;BME280;67585;44.802;10.332;2024-03-06T01:05:55;100642.41;;;10.28;nan
78121;BME280;67585;44.802;10.332;2024-03-06T01:08:22;100652.75;;;10.14;nan
78121;BME280;67585;44.802;10.332;2024-03-06T01:10:50;100638.41;;;10.03;nan
78121;BME280;67585;44.802;10.332;2024-03-06T01:13:17;100639.63;;;10.18;nan
78121;BME280;67585;44.802;10.332;2024-03-06T01:15:42;100629.25;;;10.04;nan
78121;BME280;67585;44.802;10.332;2024-03-06T01:18:08;100617.03;;;9.92;nan
78121;BME280;67585;44.802;10.332;2024-03-06T01:20:34;100641.91;;;10.04;nan
78121;BME280;67585;44.802;10.332;2024-03-06T01:22:59;100638.03;;;9.95;nan
78121;BME280;67585;44.802;10.332;2024-03-06T01:25:24;100649.41;;;10.02;nan
78121;BME280;67585;44.802;10.332;2024-03-06T01:27:50;100632.22;;;9.76;nan
78121;BME280;67585;44.802;10.332;2024-03-06T01:30:15;100624.09;;;9.49;nan
78121;BME280;67585;44.802;10.332;2024-03-06T01:32:41;100628.34;;;9.67;nan
78121;BME280;67585;44.802;10.332;2024-03-06T01:35:06;100634.53;;;9.67;nan
78121;BME280;67585;44.802;10.332;2024-03-06T01:37:32;100620.19;;;9.83;nan
78121;BME280;67585;44.802;10.332;2024-03-06T01:39:58;100655.22;;;9.89;nan
78121;BME280;67585;44.802;10.332;2024-03-06T01:42:23;100640.28;;;9.32;nan
78121;BME280;67585;44.802;10.332;2024-03-06T01:44:49;100662.00;;;9.69;nan
78121;BME280;67585;44.802;10.332;2024-03-06T01:47:14;100652.56;;;9.67;nan
78121;BME280;67585;44.802;10.332;2024-03-06T01:49:40;100640.28;;;9.32;nan
78121;BME280;67585;44.802;10.332;2024-03-06T01:52:08;100663.56;;;9.43;nan
78121;BME280;67585;44.802;10.332;2024-03-06T01:54:34;100667.63;;;9.68;nan
78121;BME280;67585;44.802;10.332;2024-03-06T01:57:01;100661.78;;;9.32;nan
78121;BME280;67585;44.802;10.332;2024-03-06T01:59:28;100678.44;;;9.73;nan
78121;BME280;67585;44.802;10.332;2024-03-06T02:01:53;100682.25;;;9.77;nan
78121;BME280;67585;44.802;10.332;2024-03-06T02:04:19;100673.25;;;9.66;nan
78121;BME280;67585;44.802;10.332;2024-03-06T02:06:46;100689.25;;;9.56;nan
78121;BME280;67585;44.802;10.332;2024-03-06T02:09:12;100695.53;;;9.39;nan
78121;BME280;67585;44.802;10.332;2024-03-06T02:11:39;100667.50;;;9.35;nan
78121;BME280;67585;44.802;10.332;2024-03-06T02:14:05;100625.28;;;9.14;nan
78121;BME280;67585;44.802;10.332;2024-03-06T02:16:35;100658.31;;;9.53;nan
78121;BME280;67585;44.802;10.332;2024-03-06T02:19:00;100631.88;;;9.45;nan
78121;BME280;67585;44.802;10.332;2024-03-06T02:21:26;100662.28;;;9.73;nan
78121;BME280;67585;44.802;10.332;2024-03-06T02:23:51;100664.06;;;9.62;nan
78121;BME280;67585;44.802;10.332;2024-03-06T02:26:20;100667.50;;;9.57;nan
78121;BME280;67585;44.802;10.332;2024-03-06T02:28:51;100668.41;;;9.24;nan
78121;BME280;67585;44.802;10.332;2024-03-06T02:31:17;100670.81;;;9.43;nan
78121;BME280;67585;44.802;10.332;2024-03-06T02:33:47;100667.69;;;9.51;nan
78121;BME280;67585;44.802;10.332;2024-03-06T02:36:13;100663.94;;;9.52;nan
78121;BME280;67585;44.802;10.332;2024-03-06T02:38:39;100646.34;;;8.83;nan
78121;BME280;67585;44.802;10.332;2024-03-06T02:41:05;100676.19;;;9.20;nan
78121;BME280;67585;44.802;10.332;2024-03-06T02:43:35;100662.63;;;9.10;nan
78121;BME280;67585;44.802;10.332;2024-03-06T02:46:01;100679.09;;;9.19;nan
78121;BME280;67585;44.802;10.332;2024-03-06T02:48:26;100683.47;;;9.03;nan
78121;BME280;67585;44.802;10.332;2024-03-06T02:50:52;100681.25;;;9.00;nan
78121;BME280;67585;44.802;10.332;2024-03-06T02:53:17;100659.19;;;8.98;nan
78121;BME280;67585;44.802;10.332;2024-03-06T02:55:43;100691.00;;;9.23;nan
78121;BME280;67585;44.802;10.332;2024-03-06T02:58:08;100675.22;;;9.10;nan
78121;BME280;67585;44.802;10.332;2024-03-06T03:00:33;100686.13;;;9.20;nan
78121;BME280;67585;44.802;10.332;2024-03-06T03:02:59;100684.47;;;9.19;nan
78121;BME280;67585;44.802;10.332;2024-03-06T03:05:24;100677.72;;;9.16;nan
78121;BME280;67585;44.802;10.332;2024-03-06T03:07:50;100664.06;;;9.18;nan
78121;BME280;67585;44.802;10.332;2024-03-06T03:10:16;100672.75;;;9.25;nan
78121;BME280;67585;44.802;10.332;2024-03-06T03:12:41;100680.75;;;9.20;nan
78121;BME280;67585;44.802;10.332;2024-03-06T03:15:08;100671.38;;;9.23;nan
78121;BME280;67585;44.802;10.332;2024-03-06T03:17:33;100647.28;;;9.11;nan
78121;BME280;67585;44.802;10.332;2024-03-06T03:19:59;100659.72;;;9.17;nan
78121;BME280;67585;44.802;10.332;2024-03-06T03:22:24;100674.44;;;9.31;nan
78121;BME280;67585;44.802;10.332;2024-03-06T03:24:50;100672.88;;;8.96;nan
78121;BME280;67585;44.802;10.332;2024-03-06T03:27:15;100698.53;;;8.87;nan
78121;BME280;67585;44.802;10.332;2024-03-06T03:29:41;100697.56;;;8.93;nan
78121;BME280;67585;44.802;10.332;2024-03-06T03:32:06;100672.47;;;8.88;nan
78121;BME280;67585;44.802;10.332;2024-03-06T03:34:34;100664.56;;;8.98;nan
78121;BME280;67585;44.802;10.332;2024-03-06T03:36:59;100687.13;;;8.97;nan
78121;BME280;67585;44.802;10.332;2024-03-06T03:39:24;100682.63;;;9.03;nan
78121;BME280;67585;44.802;10.332;2024-03-06T03:41:50;100690.06;;;8.78;nan
78121;BME280;67585;44.802;10.332;2024-03-06T03:44:16;100689.16;;;8.90;nan
78121;BME280;67585;44.802;10.332;2024-03-06T03:46:43;100673.63;;;8.92;nan
78121;BME280;67585;44.802;10.332;2024-03-06T03:49:08;100701.00;;;8.89;nan
78121;BME280;67585;44.802;10.332;2024-03-06T03:51:38;100703.59;;;8.84;nan
78121;BME280;67585;44.802;10.332;2024-03-06T03:54:05;100679.91;;;8.81;nan
78121;BME280;67585;44.802;10.332;2024-03-06T03:56:31;100684.47;;;8.80;nan
78121;BME280;67585;44.802;10.332;2024-03-06T03:58:57;100694.53;;;8.90;nan
78121;BME280;67585;44.802;10.332;2024-03-06T04:01:24;100677.28;;;8.69;nan
78121;BME280;67585;44.802;10.332;2024-03-06T04:03:49;100675.34;;;8.81;nan
78121;BME280;67585;44.802;10.332;2024-03-06T04:06:16;100695.69;;;8.77;nan
78121;BME280;67585;44.802;10.332;2024-03-06T04:08:41;100683.31;;;8.59;nan
78121;BME280;67585;44.802;10.332;2024-03-06T04:11:07;100695.94;;;8.75;nan
78121;BME280;67585;44.802;10.332;2024-03-06T04:13:37;100679.16;;;8.68;nan
78121;BME280;67585;44.802;10.332;2024-03-06T04:16:04;100689.91;;;8.68;nan
78121;BME280;67585;44.802;10.332;2024-03-06T04:18:31;100670.53;;;8.49;nan
78121;BME280;67585;44.802;10.332;2024-03-06T04:21:03;100686.91;;;8.65;nan
78121;BME280;67585;44.802;10.332;2024-03-06T04:23:29;100688.28;;;8.50;nan
78121;BME280;67585;44.802;10.332;2024-03-06T04:25:54;100675.19;;;8.71;nan
78121;BME280;67585;44.802;10.332;2024-03-06T04:28:20;100693.00;;;8.77;nan
78121;BME280;67585;44.802;10.332;2024-03-06T04:30:45;100697.50;;;8.54;nan
78121;BME280;67585;44.802;10.332;2024-03-06T04:33:11;100691.13;;;8.44;nan
78121;BME280;67585;44.802;10.332;2024-03-06T04:35:39;100714.66;;;8.53;nan
78121;BME280;67585;44.802;10.332;2024-03-06T04:38:04;100719.69;;;8.50;nan
78121;BME280;67585;44.802;10.332;2024-03-06T04:40:30;100731.91;;;8.29;nan
78121;BME280;67585;44.802;10.332;2024-03-06T04:42:56;100733.63;;;7.78;nan
78121;BME280;67585;44.802;10.332;2024-03-06T04:45:22;100710.59;;;7.53;nan
78121;BME280;67585;44.802;10.332;2024-03-06T04:47:47;100707.56;;;7.49;nan
78121;BME280;67585;44.802;10.332;2024-03-06T04:50:13;100742.78;;;8.22;nan
78121;BME280;67585;44.802;10.332;2024-03-06T04:52:40;100712.31;;;8.28;nan
78121;BME280;67585;44.802;10.332;2024-03-06T04:55:06;100741.88;;;8.17;nan
78121;BME280;67585;44.802;10.332;2024-03-06T04:57:32;100750.16;;;7.86;nan
78121;BME280;67585;44.802;10.332;2024-03-06T04:59:58;100738.56;;;8.26;nan
78121;BME280;67585;44.802;10.332;2024-03-06T05:02:24;100742.78;;;8.22;nan
78121;BME280;67585;44.802;10.332;2024-03-06T05:04:50;100741.56;;;8.30;nan
78121;BME280;67585;44.802;10.332;2024-03-06T05:07:16;100745.84;;;8.14;nan
78121;BME280;67585;44.802;10.332;2024-03-06T05:09:41;100720.19;;;7.89;nan
78121;BME280;67585;44.802;10.332;2024-03-06T05:12:07;100759.88;;;8.45;nan
78121;BME280;67585;44.802;10.332;2024-03-06T05:14:33;100767.75;;;8.51;nan
78121;BME280;67585;44.802;10.332;2024-03-06T05:16:59;100749.38;;;8.03;nan
78121;BME280;67585;44.802;10.332;2024-03-06T05:19:24;100769.72;;;7.99;nan
78121;BME280;67585;44.802;10.332;2024-03-06T05:21:57;100755.53;;;8.15;nan
78121;BME280;67585;44.802;10.332;2024-03-06T05:24:23;100762.22;;;8.01;nan
78121;BME280;67585;44.802;10.332;2024-03-06T05:26:49;100734.91;;;8.16;nan
78121;BME280;67585;44.802;10.332;2024-03-06T05:29:14;100743.97;;;8.14;nan
78121;BME280;67585;44.802;10.332;2024-03-06T05:31:39;100738.47;;;7.92;nan
78121;BME280;67585;44.802;10.332;2024-03-06T05:34:05;100763.97;;;8.35;nan
78121;BME280;67585;44.802;10.332;2024-03-06T05:36:30;100740.25;;;8.16;nan
78121;BME280;67585;44.802;10.332;2024-03-06T05:38:56;100735.66;;;8.28;nan
78121;BME280;67585;44.802;10.332;2024-03-06T05:41:21;100748.94;;;8.23;nan
78121;BME280;67585;44.802;10.332;2024-03-06T05:43:49;100754.91;;;8.25;nan
78121;BME280;67585;44.802;10.332;2024-03-06T05:46:15;100733.38;;;8.08;nan
78121;BME280;67585;44.802;10.332;2024-03-06T05:48:41;100787.22;;;7.89;nan
78121;BME280;67585;44.802;10.332;2024-03-06T05:51:06;100776.13;;;7.98;nan
78121;BME280;67585;44.802;10.332;2024-03-06T05:53:38;100792.94;;;8.22;nan
78121;BME280;67585;44.802;10.332;2024-03-06T05:56:06;100775.34;;;8.26;nan
78121;BME280;67585;44.802;10.332;2024-03-06T05:58:31;100785.47;;;8.24;nan
78121;BME280;67585;44.802;10.332;2024-03-06T06:00:57;100770.41;;;8.06;nan
78121;BME280;67585;44.802;10.332;2024-03-06T06:03:23;100790.50;;;8.20;nan
78121;BME280;67585;44.802;10.332;2024-03-06T06:05:48;100783.19;;;8.16;nan
78121;BME280;67585;44.802;10.332;2024-03-06T06:08:13;100767.75;;;8.23;nan
78121;BME280;67585;44.802;10.332;2024-03-06T06:10:39;100773.50;;;8.14;nan
78121;BME280;67585;44.802;10.332;2024-03-06T06:13:04;100781.91;;;8.18;nan
78121;BME280;67585;44.802;10.332;2024-03-06T06:15:30;100795.31;;;8.18;nan
78121;BME280;67585;44.802;10.332;2024-03-06T06:17:55;100821.53;;;8.28;nan
78121;BME280;67585;44.802;10.332;2024-03-06T06:20:21;100819.34;;;8.53;nan
78121;BME280;67585;44.802;10.332;2024-03-06T06:22:46;100832.13;;;8.23;nan
78121;BME280;67585;44.802;10.332;2024-03-06T06:25:12;100799.91;;;8.06;nan
78121;BME280;67585;44.802;10.332;2024-03-06T06:27:37;100817.84;;;8.05;nan
78121;BME280;67585;44.802;10.332;2024-03-06T06:30:04;100836.38;;;8.19;nan
78121;BME280;67585;44.802;10.332;2024-03-06T06:32:29;100837.22;;;8.07;nan
78121;BME280;67585;44.802;10.332;2024-03-06T06:34:55;100810.50;;;8.01;nan
78121;BME280;67585;44.802;10.332;2024-03-06T06:37:21;100819.88;;;7.86;nan
78121;BME280;67585;44.802;10.332;2024-03-06T06:39:47;100802.72;;;7.99;nan
78121;BME280;67585;44.802;10.332;2024-03-06T06:42:13;100829.91;;;8.31;nan
78121;BME280;67585;44.802;10.332;2024-03-06T06:44:39;100824.97;;;8.11;nan
78121;BME280;67585;44.802;10.332;2024-03-06T06:47:04;100852.19;;;8.32;nan
78121;BME280;67585;44.802;10.332;2024-03-06T06:49:30;100833.88;;;8.41;nan
78121;BME280;67585;44.802;10.332;2024-03-06T06:51:55;100836.44;;;8.35;nan
78121;BME280;67585;44.802;10.332;2024-03-06T06:54:20;100830.53;;;8.62;nan
78121;BME280;67585;44.802;10.332;2024-03-06T06:56:46;100848.38;;;8.85;nan
78121;BME280;67585;44.802;10.332;2024-03-06T06:59:12;100850.38;;;9.07;nan
78121;BME280;67585;44.802;10.332;2024-03-06T07:01:38;100842.06;;;9.08;nan
78121;BME280;67585;44.802;10.332;2024-03-06T07:04:05;100853.63;;;8.92;nan
78121;BME280;67585;44.802;10.332;2024-03-06T07:06:31;100821.50;;;8.40;nan
78121;BME280;67585;44.802;10.332;2024-03-06T07:08:57;100852.88;;;8.39;nan
78121;BME280;67585;44.802;10.332;2024-03-06T07:11:22;100825.63;;;8.59;nan
78121;BME280;67585;44.802;10.332;2024-03-06T07:13:48;100832.81;;;8.70;nan
78121;BME280;67585;44.802;10.332;2024-03-06T07:16:13;100847.25;;;8.81;nan
78121;BME280;67585;44.802;10.332;2024-03-06T07:18:39;100852.63;;;8.98;nan
78121;BME280;67585;44.802;10.332;2024-03-06T07:21:05;100823.41;;;8.85;nan
78121;BME280;67585;44.802;10.332;2024-03-06T07:23:30;100842.00;;;9.03;nan
78121;BME280;67585;44.802;10.332;2024-03-06T07:25:56;100823.50;;;9.07;nan
78121;BME280;67585;44.802;10.332;2024-03-06T07:28:22;100850.94;;;9.59;nan
78121;BME280;67585;44.802;10.332;2024-03-06T07:30:48;100842.31;;;9.57;nan
78121;BME280;67585;44.802;10.332;2024-03-06T07:33:13;100841.09;;;9.48;nan
78121;BME280;67585;44.802;10.332;2024-03-06T07:35:39;100848.56;;;9.63;nan
78121;BME280;67585;44.802;10.332;2024-03-06T07:38:04;100866.38;;;10.47;nan
78121;BME280;67585;44.802;10.332;2024-03-06T07:40:31;100861.97;;;10.63;nan
78121;BME280;67585;44.802;10.332;2024-03-06T07:42:57;100876.72;;;11.09;nan
78121;BME280;67585;44.802;10.332;2024-03-06T07:45:23;100833.41;;;10.89;nan
78121;BME280;67585;44.802;10.332;2024-03-06T07:47:48;100858.31;;;11.33;nan
78121;BME280;67585;44.802;10.332;2024-03-06T07:50:13;100888.72;;;11.61;nan
78121;BME280;67585;44.802;10.332;2024-03-06T07:52:46;100874.91;;;11.20;nan
78121;BME280;67585;44.802;10.332;2024-03-06T07:55:12;100880.03;;;11.54;nan
78121;BME280;67585;44.802;10.332;2024-03-06T07:57:37;100874.19;;;11.67;nan
78121;BME280;67585;44.802;10.332;2024-03-06T08:00:06;100852.34;;;10.99;nan
78121;BME280;67585;44.802;10.332;2024-03-06T08:02:42;100895.38;;;11.16;nan
78121;BME280;67585;44.802;10.332;2024-03-06T08:05:15;100903.03;;;10.97;nan
78121;BME280;67585;44.802;10.332;2024-03-06T08:07:41;100898.44;;;10.98;nan
78121;BME280;67585;44.802;10.332;2024-03-06T08:10:10;100903.56;;;10.72;nan
78121;BME280;67585;44.802;10.332;2024-03-06T08:12:39;100902.31;;;10.58;nan
78121;BME280;67585;44.802;10.332;2024-03-06T08:15:05;100923.88;;;11.07;nan
78121;BME280;67585;44.802;10.332;2024-03-06T08:17:34;100906.78;;;10.96;nan
78121;BME280;67585;44.802;10.332;2024-03-06T08:20:00;100923.47;;;10.93;nan
78121;BME280;67585;44.802;10.332;2024-03-06T08:22:25;100935.59;;;10.68;nan
78121;BME280;67585;44.802;10.332;2024-03-06T08:24:52;100935.72;;;11.06;nan
78121;BME280;67585;44.802;10.332;2024-03-06T08:27:17;100935.84;;;10.94;nan
78121;BME280;67585;44.802;10.332;2024-03-06T08:29:43;100938.72;;;11.09;nan
78121;BME280;67585;44.802;10.332;2024-03-06T08:32:08;100937.09;;;11.08;nan
78121;BME280;67585;44.802;10.332;2024-03-06T08:34:34;100939.88;;;11.19;nan
78121;BME280;67585;44.802;10.332;2024-03-06T08:36:59;100919.03;;;10.82;nan
78121;BME280;67585;44.802;10.332;2024-03-06T08:39:25;100930.94;;;11.13;nan
78121;BME280;67585;44.802;10.332;2024-03-06T08:41:50;100926.44;;;10.97;nan
78121;BME280;67585;44.802;10.332;2024-03-06T08:44:15;100945.75;;;11.43;nan
78121;BME280;67585;44.802;10.332;2024-03-06T08:46:41;100944.09;;;11.69;nan
78121;BME280;67585;44.802;10.332;2024-03-06T08:49:07;100901.16;;;11.67;nan
78121;BME280;67585;44.802;10.332;2024-03-06T08:51:32;100916.31;;;12.06;nan
78121;BME280;67585;44.802;10.332;2024-03-06T08:53:57;100923.84;;;12.04;nan
78121;BME280;67585;44.802;10.332;2024-03-06T08:56:23;100937.13;;;11.73;nan
78121;BME280;67585;44.802;10.332;2024-03-06T08:58:49;100941.44;;;11.74;nan
78121;BME280;67585;44.802;10.332;2024-03-06T09:01:14;100937.50;;;11.54;nan
78121;BME280;67585;44.802;10.332;2024-03-06T09:03:39;100955.34;;;11.55;nan
78121;BME280;67585;44.802;10.332;2024-03-06T09:06:05;100952.41;;;11.62;nan
78121;BME280;67585;44.802;10.332;2024-03-06T09:08:31;100974.97;;;11.83;nan
78121;BME280;67585;44.802;10.332;2024-03-06T09:10:56;100972.03;;;11.85;nan
78121;BME280;67585;44.802;10.332;2024-03-06T09:13:24;100947.13;;;12.10;nan
78121;BME280;67585;44.802;10.332;2024-03-06T09:15:50;100976.13;;;12.30;nan
78121;BME280;67585;44.802;10.332;2024-03-06T09:18:15;100951.84;;;11.87;nan
78121;BME280;67585;44.802;10.332;2024-03-06T09:20:41;100913.59;;;11.68;nan
78121;BME280;67585;44.802;10.332;2024-03-06T09:23:08;100965.41;;;11.97;nan
78121;BME280;67585;44.802;10.332;2024-03-06T09:25:33;100921.50;;;11.75;nan
78121;BME280;67585;44.802;10.332;2024-03-06T09:27:59;100968.22;;;12.18;nan
78121;BME280;67585;44.802;10.332;2024-03-06T09:30:25;100928.53;;;12.18;nan
78121;BME280;67585;44.802;10.332;2024-03-06T09:32:51;100982.25;;;12.63;nan
78121;BME280;67585;44.802;10.332;2024-03-06T09:35:16;100968.44;;;13.48;nan
78121;BME280;67585;44.802;10.332;2024-03-06T09:37:42;100970.59;;;13.86;nan
78121;BME280;67585;44.802;10.332;2024-03-06T09:40:20;100971.31;;;14.38;nan
78121;BME280;67585;44.802;10.332;2024-03-06T09:42:46;100977.31;;;15.05;nan
78121;BME280;67585;44.802;10.332;2024-03-06T09:45:11;100982.69;;;14.40;nan
78121;BME280;67585;44.802;10.332;2024-03-06T09:47:38;100972.72;;;14.20;nan
78121;BME280;67585;44.802;10.332;2024-03-06T09:50:08;100967.31;;;14.00;nan
78121;BME280;67585;44.802;10.332;2024-03-06T09:52:34;100979.69;;;14.52;nan
78121;BME280;67585;44.802;10.332;2024-03-06T09:55:01;100972.38;;;14.58;nan
78121;BME280;67585;44.802;10.332;2024-03-06T09:57:27;100967.19;;;15.16;nan
78121;BME280;67585;44.802;10.332;2024-03-06T09:59:53;100982.69;;;15.10;nan
78121;BME280;67585;44.802;10.332;2024-03-06T10:02:43;100983.97;;;15.23;nan
78121;BME280;67585;44.802;10.332;2024-03-06T10:05:21;100982.56;;;14.86;nan
78121;BME280;67585;44.802;10.332;2024-03-06T10:07:49;100950.66;;;14.63;nan
78121;BME280;67585;44.802;10.332;2024-03-06T10:10:16;100956.25;;;15.66;nan
78121;BME280;67585;44.802;10.332;2024-03-06T10:12:42;100992.25;;;15.81;nan
78121;BME280;67585;44.802;10.332;2024-03-06T10:15:10;100996.34;;;14.90;nan
78121;BME280;67585;44.802;10.332;2024-03-06T10:17:37;100995.56;;;15.78;nan
78121;BME280;67585;44.802;10.332;2024-03-06T10:20:20;100972.50;;;15.36;nan
78121;BME280;67585;44.802;10.332;2024-03-06T10:22:50;100988.66;;;14.42;nan
78121;BME280;67585;44.802;10.332;2024-03-06T10:25:25;100949.94;;;14.21;nan
78121;BME280;67585;44.802;10.332;2024-03-06T10:28:06;100950.44;;;14.39;nan
78121;BME280;67585;44.802;10.332;2024-03-06T10:30:36;100985.16;;;14.31;nan
78121;BME280;67585;44.802;10.332;2024-03-06T10:33:05;100952.94;;;14.09;nan
78121;BME280;67585;44.802;10.332;2024-03-06T10:35:33;100980.59;;;14.11;nan
78121;BME280;67585;44.802;10.332;2024-03-06T10:38:04;100989.56;;;13.76;nan
78121;BME280;67585;44.802;10.332;2024-03-06T10:40:34;100957.59;;;13.68;nan
78121;BME280;67585;44.802;10.332;2024-03-06T10:43:02;100985.72;;;14.03;nan
78121;BME280;67585;44.802;10.332;2024-03-06T10:47:59;100987.38;;;13.78;nan
78121;BME280;67585;44.802;10.332;2024-03-06T10:50:26;100982.50;;;14.06;nan
78121;BME280;67585;44.802;10.332;2024-03-06T10:52:53;100955.94;;;14.13;nan
78121;BME280;67585;44.802;10.332;2024-03-06T10:55:20;100999.00;;;14.09;nan
78121;BME280;67585;44.802;10.332;2024-03-06T10:57:46;100982.53;;;13.60;nan
78121;BME280;67585;44.802;10.332;2024-03-06T11:00:14;101000.19;;;14.84;nan
78121;BME280;67585;44.802;10.332;2024-03-06T11:02:46;101008.94;;;15.25;nan
78121;BME280;67585;44.802;10.332;2024-03-06T11:05:14;101014.00;;;14.87;nan
78121;BME280;67585;44.802;10.332;2024-03-06T11:07:39;100999.31;;;15.43;nan
78121;BME280;67585;44.802;10.332;2024-03-06T11:10:05;100992.72;;;15.54;nan
78121;BME280;67585;44.802;10.332;2024-03-06T11:12:35;101000.25;;;16.02;nan
78121;BME280;67585;44.802;10.332;2024-03-06T11:15:09;101015.16;;;16.34;nan
78121;BME280;67585;44.802;10.332;2024-03-06T11:17:36;101014.09;;;15.22;nan
78121;BME280;67585;44.802;10.332;2024-03-06T11:28:25;101004.97;;;15.02;nan
78121;BME280;67585;44.802;10.332;2024-03-06T11:30:59;101009.63;;;14.96;nan
78121;BME280;67585;44.802;10.332;2024-03-06T11:33:45;101008.56;;;15.42;nan
78121;BME280;67585;44.802;10.332;2024-03-06T11:39:07;100996.06;;;15.41;nan
78121;BME280;67585;44.802;10.332;2024-03-06T11:44:01;100985.34;;;14.61;nan
78121;BME280;67585;44.802;10.332;2024-03-06T11:46:49;100977.59;;;14.18;nan
78121;BME280;67585;44.802;10.332;2024-03-06T11:49:24;101006.03;;;14.21;nan
78121;BME280;67585;44.802;10.332;2024-03-06T11:51:53;101005.41;;;14.70;nan
78121;BME280;67585;44.802;10.332;2024-03-06T11:54:19;100999.94;;;14.75;nan
78121;BME280;67585;44.802;10.332;2024-03-06T11:56:55;100994.22;;;15.31;nan
78121;BME280;67585;44.802;10.332;2024-03-06T11:59:22;100990.72;;;16.29;nan
78121;BME280;67585;44.802;10.332;2024-03-06T12:01:48;100980.38;;;15.72;nan
78121;BME280;67585;44.802;10.332;2024-03-06T12:04:13;100986.50;;;16.17;nan
78121;BME280;67585;44.802;10.332;2024-03-06T12:06:39;100977.88;;;15.81;nan
78121;BME280;67585;44.802;10.332;2024-03-06T12:09:04;100980.78;;;16.43;nan
78121;BME280;67585;44.802;10.332;2024-03-06T12:11:29;100965.75;;;15.63;nan
78121;BME280;67585;44.802;10.332;2024-03-06T12:13:56;100988.25;;;14.85;nan
78121;BME280;67585;44.802;10.332;2024-03-06T12:16:22;100984.81;;;14.69;nan
78121;BME280;67585;44.802;10.332;2024-03-06T12:18:58;100934.09;;;14.69;nan
78121;BME280;67585;44.802;10.332;2024-03-06T12:21:33;100967.22;;;15.11;nan
78121;BME280;67585;44.802;10.332;2024-03-06T12:24:06;100973.28;;;14.92;nan
78121;BME280;67585;44.802;10.332;2024-03-06T12:26:32;100970.91;;;14.86;nan
78121;BME280;67585;44.802;10.332;2024-03-06T12:29:05;100986.84;;;13.92;nan
78121;BME280;67585;44.802;10.332;2024-03-06T12:31:31;100988.38;;;14.59;nan
78121;BME280;67585;44.802;10.332;2024-03-06T12:33:57;100969.25;;;13.94;nan
78121;BME280;67585;44.802;10.332;2024-03-06T12:36:25;100977.09;;;13.90;nan
78121;BME280;67585;44.802;10.332;2024-03-06T12:39:01;100986.84;;;14.02;nan
78121;BME280;67585;44.802;10.332;2024-03-06T12:41:27;100985.50;;;13.84;nan
78121;BME280;67585;44.802;10.332;2024-03-06T12:43:54;100972.50;;;13.60;nan
78121;BME280;67585;44.802;10.332;2024-03-06T12:46:20;100973.53;;;14.21;nan
78121;BME280;67585;44.802;10.332;2024-03-06T12:48:45;100947.59;;;14.80;nan
78121;BME280;67585;44.802;10.332;2024-03-06T12:51:11;100948.63;;;15.33;nan
78121;BME280;67585;44.802;10.332;2024-03-06T12:53:37;100956.69;;;15.44;nan
78121;BME280;67585;44.802;10.332;2024-03-06T12:56:03;100971.41;;;15.37;nan
78121;BME280;67585;44.802;10.332;2024-03-06T12:58:28;100963.25;;;15.37;nan
78121;BME280;67585;44.802;10.332;2024-03-06T13:00:56;100962.34;;;15.13;nan
78121;BME280;67585;44.802;10.332;2024-03-06T13:03:22;100957.34;;;15.30;nan
78121;BME280;67585;44.802;10.332;2024-03-06T13:05:48;100968.91;;;15.02;nan
78121;BME280;67585;44.802;10.332;2024-03-06T13:08:13;100961.50;;;14.63;nan
78121;BME280;67585;44.802;10.332;2024-03-06T13:10:40;100961.25;;;14.59;nan
78121;BME280;67585;44.802;10.332;2024-03-06T13:13:05;100920.94;;;14.22;nan
78121;BME280;67585;44.802;10.332;2024-03-06T13:15:32;100963.50;;;14.21;nan
78121;BME280;67585;44.802;10.332;2024-03-06T13:17:59;100956.47;;;14.20;nan